Time;durP1;ratioP1;P1;durP2;ratioP2;P2;SDS_P1;SDS_P2;PMS_P1;PMS_P2;Temp;Humidity;BMP_temperature;BMP_pressure;BME280_temperature;BME280_humidity;BME280_pressure;Samples;Min_cycle;Max_cycle;Signal;HPM_P1;HPM_P2
2021/05/23 00:00:25;;;;;;;1.70;1.30;;;11.30;99.90;;;;;;5054035;28;20217;-70
2021/05/23 00:02:53;;;;;;;2.55;1.60;;;11.30;99.90;;;;;;5054295;28;20212;-70
2021/05/23 00:05:22;;;;;;;2.70;1.48;;;11.20;99.90;;;;;;5054475;28;20227;-70
2021/05/23 00:07:53;;;;;;;2.35;1.15;;;11.20;99.90;;;;;;5053852;28;20205;-70
2021/05/23 00:10:21;;;;;;;2.08;1.48;;;11.20;99.90;;;;;;5054119;28;20307;-70
2021/05/23 00:12:47;;;;;;;2.85;1.48;;;11.20;99.90;;;;;;5053842;28;20274;-70
2021/05/23 00:15:18;;;;;;;1.75;1.30;;;11.20;99.90;;;;;;5053937;28;20263;-69
2021/05/23 00:17:44;;;;;;;5.70;1.30;;;11.20;99.90;;;;;;5053656;28;20204;-70
2021/05/23 00:20:11;;;;;;;1.80;1.50;;;11.20;99.90;;;;;;5053795;28;20260;-70
2021/05/23 00:22:38;;;;;;;1.42;1.33;;;11.20;99.90;;;;;;5053759;28;20201;-70
2021/05/23 00:25:06;;;;;;;4.50;1.80;;;11.20;99.90;;;;;;5054118;28;20291;-70
2021/05/23 00:27:32;;;;;;;1.88;1.40;;;11.10;99.90;;;;;;5053822;28;20907;-70
2021/05/23 00:29:59;;;;;;;2.55;1.55;;;11.20;99.90;;;;;;5053198;28;20205;-69
2021/05/23 00:32:25;;;;;;;1.35;1.25;;;11.10;99.90;;;;;;5053468;28;20782;-70
2021/05/23 00:34:52;;;;;;;2.10;1.27;;;11.10;99.90;;;;;;5053087;28;20331;-70
2021/05/23 00:37:18;;;;;;;1.85;1.40;;;11.10;99.90;;;;;;5053555;28;20291;-69
2021/05/23 00:39:47;;;;;;;1.83;1.45;;;11.20;99.90;;;;;;5052651;28;20295;-70
2021/05/23 00:42:14;;;;;;;1.00;0.90;;;11.20;99.90;;;;;;5053428;28;20304;-69
2021/05/23 00:44:40;;;;;;;1.35;1.10;;;11.20;99.90;;;;;;5053206;28;20684;-70
2021/05/23 00:47:06;;;;;;;1.85;1.40;;;11.10;99.90;;;;;;5053028;28;20201;-70
2021/05/23 00:49:36;;;;;;;1.67;1.30;;;11.10;99.90;;;;;;5052948;28;20698;-70
2021/05/23 00:52:04;;;;;;;1.65;1.55;;;11.10;99.90;;;;;;5052840;28;20286;-70
2021/05/23 00:54:31;;;;;;;1.40;1.17;;;11.00;99.90;;;;;;5052832;28;20316;-70
2021/05/23 00:56:58;;;;;;;1.73;1.20;;;11.00;99.90;;;;;;5052306;28;20278;-70
2021/05/23 00:59:25;;;;;;;2.00;1.10;;;10.90;99.90;;;;;;5052841;28;20229;-70
2021/05/23 01:02:27;;;;;;;1.58;1.02;;;10.90;99.90;;;;;;5052837;28;20404;-70
2021/05/23 01:04:54;;;;;;;1.58;1.10;;;10.90;99.90;;;;;;5042260;28;20307;-70
2021/05/23 01:07:20;;;;;;;1.75;1.45;;;10.90;99.90;;;;;;5052871;28;20271;-70
2021/05/23 01:09:46;;;;;;;1.23;1.10;;;10.80;99.90;;;;;;5052446;28;20204;-70
2021/05/23 01:12:36;;;;;;;1.80;1.10;;;10.90;99.90;;;;;;5052961;28;20628;-70
2021/05/23 01:15:04;;;;;;;1.80;1.20;;;10.90;99.90;;;;;;5052881;28;20320;-70
2021/05/23 01:17:41;;;;;;;2.33;1.15;;;10.90;99.90;;;;;;5052905;28;20208;-70
2021/05/23 01:20:27;;;;;;;2.08;1.50;;;10.80;99.90;;;;;;5052859;28;20225;-70
2021/05/23 01:23:11;;;;;;;1.23;1.10;;;10.80;99.90;;;;;;5052763;28;20205;-70
2021/05/23 01:25:41;;;;;;;1.75;1.20;;;10.80;99.90;;;;;;5052478;28;20205;-70
2021/05/23 01:28:07;;;;;;;1.88;1.35;;;10.80;99.90;;;;;;5052281;28;20722;-69
2021/05/23 01:30:42;;;;;;;2.47;1.48;;;10.80;99.90;;;;;;5052187;28;20302;-70
2021/05/23 01:33:08;;;;;;;2.72;1.30;;;10.80;99.90;;;;;;5052113;28;20239;-69
2021/05/23 01:35:37;;;;;;;3.30;1.40;;;10.80;99.90;;;;;;5051967;28;20312;-70
2021/05/23 01:38:06;;;;;;;1.52;1.27;;;10.70;99.90;;;;;;5051611;28;20212;-70
2021/05/23 01:40:35;;;;;;;1.40;1.20;;;10.70;99.90;;;;;;5051768;28;20640;-70
2021/05/23 01:43:04;;;;;;;1.90;1.50;;;10.70;99.90;;;;;;5051360;28;20211;-70
2021/05/23 01:45:31;;;;;;;1.58;1.25;;;10.70;99.90;;;;;;5051301;28;20282;-70
2021/05/23 01:47:59;;;;;;;1.95;1.20;;;10.70;99.90;;;;;;5051185;28;20205;-69
2021/05/23 01:50:26;;;;;;;1.10;1.00;;;10.60;99.90;;;;;;5051372;28;20229;-69
2021/05/23 01:52:54;;;;;;;1.30;1.10;;;10.60;99.90;;;;;;5051276;28;20220;-70
2021/05/23 01:55:21;;;;;;;2.05;1.02;;;10.60;99.90;;;;;;5051179;28;20232;-69
2021/05/23 01:57:48;;;;;;;1.75;1.30;;;10.60;99.90;;;;;;5050924;28;20201;-68
2021/05/23 02:00:17;;;;;;;1.90;1.50;;;10.60;99.90;;;;;;5051153;28;20221;-69
2021/05/23 02:02:44;;;;;;;5.20;1.20;;;10.60;99.90;;;;;;5051093;28;20197;-69
2021/05/23 02:05:12;;;;;;;1.85;1.38;;;10.50;99.90;;;;;;5051331;28;20258;-69
2021/05/23 02:07:39;;;;;;;2.00;1.40;;;10.50;99.90;;;;;;5050350;28;20254;-69
2021/05/23 02:10:06;;;;;;;1.70;1.20;;;10.40;99.90;;;;;;5050626;28;20239;-69
2021/05/23 02:12:33;;;;;;;3.55;1.30;;;10.50;99.90;;;;;;5051172;28;20205;-69
2021/05/23 02:15:00;;;;;;;2.45;1.30;;;10.50;99.90;;;;;;5050898;28;20310;-70
2021/05/23 02:17:27;;;;;;;2.92;1.70;;;10.50;99.90;;;;;;5051104;28;20205;-69
2021/05/23 02:19:53;;;;;;;2.50;1.42;;;10.50;99.90;;;;;;5050577;28;20205;-69
2021/05/23 02:22:19;;;;;;;2.15;1.25;;;10.50;99.90;;;;;;5051028;28;20672;-70
2021/05/23 02:24:46;;;;;;;2.08;1.30;;;10.60;99.90;;;;;;5050657;28;20209;-69
2021/05/23 02:27:13;;;;;;;1.90;1.60;;;10.60;99.90;;;;;;5051436;28;20212;-69
2021/05/23 02:29:39;;;;;;;1.10;1.00;;;10.60;99.90;;;;;;5050704;28;20595;-70
2021/05/23 02:32:06;;;;;;;1.95;1.35;;;10.50;99.90;;;;;;5050847;28;20279;-69
2021/05/23 02:34:34;;;;;;;1.85;1.00;;;10.30;99.90;;;;;;5050772;28;20229;-69
2021/05/23 02:37:01;;;;;;;4.47;1.20;;;10.10;99.90;;;;;;5050451;28;20211;-70
2021/05/23 02:39:27;;;;;;;1.63;1.10;;;9.90;99.90;;;;;;5050539;28;20197;-69
2021/05/23 02:41:53;;;;;;;2.15;1.00;;;9.70;99.90;;;;;;5050427;28;20221;-69
2021/05/23 02:44:19;;;;;;;2.05;1.10;;;9.50;99.90;;;;;;5050825;28;20695;-69
2021/05/23 02:46:46;;;;;;;3.40;1.10;;;9.40;99.90;;;;;;5050450;28;20204;-68
2021/05/23 02:49:15;;;;;;;1.10;1.00;;;9.30;99.90;;;;;;5050388;28;20209;-69
2021/05/23 02:51:43;;;;;;;1.70;0.90;;;9.20;99.90;;;;;;5050378;28;20720;-69
2021/05/23 02:54:09;;;;;;;1.00;0.80;;;9.10;99.90;;;;;;5050469;28;20574;-70
2021/05/23 02:56:35;;;;;;;1.80;1.00;;;9.10;99.90;;;;;;5050541;28;20208;-70
2021/05/23 02:59:02;;;;;;;1.17;0.90;;;9.10;99.90;;;;;;5049953;28;20208;-68
2021/05/23 03:01:28;;;;;;;1.10;0.85;;;9.10;99.90;;;;;;5050493;28;20217;-69
2021/05/23 03:03:55;;;;;;;1.75;0.93;;;9.10;99.90;;;;;;5050409;28;20205;-69
2021/05/23 03:06:21;;;;;;;1.10;0.90;;;9.10;99.90;;;;;;5050382;28;20205;-69
2021/05/23 03:08:48;;;;;;;0.82;0.80;;;9.00;99.90;;;;;;5050117;28;20208;-69
2021/05/23 03:11:15;;;;;;;4.93;1.17;;;9.00;99.90;;;;;;5050403;28;20229;-70
2021/05/23 03:13:41;;;;;;;0.98;0.88;;;9.00;99.90;;;;;;5050574;28;20267;-69
2021/05/23 03:16:07;;;;;;;0.90;0.80;;;9.00;99.90;;;;;;5050656;28;20602;-70
2021/05/23 03:18:33;;;;;;;1.52;1.10;;;9.00;99.90;;;;;;5050080;28;20201;-69
2021/05/23 03:21:00;;;;;;;1.40;1.00;;;8.90;99.90;;;;;;5053772;28;20232;-69
2021/05/23 03:23:26;;;;;;;1.10;1.00;;;8.90;99.90;;;;;;5054474;28;20240;-69
2021/05/23 03:25:53;;;;;;;1.92;1.10;;;8.80;99.90;;;;;;5054561;28;20196;-70
2021/05/23 03:28:19;;;;;;;1.55;0.90;;;8.70;99.90;;;;;;5054228;28;20201;-69
2021/05/23 03:30:45;;;;;;;1.70;1.00;;;8.70;99.90;;;;;;5054051;28;20747;-69
2021/05/23 03:33:12;;;;;;;1.10;1.00;;;8.70;99.90;;;;;;5054269;28;20201;-69
2021/05/23 03:35:40;;;;;;;1.15;0.90;;;8.70;99.90;;;;;;5053823;28;20221;-70
2021/05/23 03:38:07;;;;;;;3.28;1.00;;;8.70;99.90;;;;;;5053648;28;20201;-69
2021/05/23 03:40:36;;;;;;;1.50;1.05;;;8.80;99.90;;;;;;5053800;28;20221;-70
2021/05/23 03:43:04;;;;;;;1.10;0.90;;;8.80;99.90;;;;;;5053855;28;20270;-69
2021/05/23 03:45:31;;;;;;;1.00;0.90;;;8.90;99.90;;;;;;5053943;28;20203;-69
2021/05/23 03:47:57;;;;;;;1.10;0.90;;;8.90;99.90;;;;;;5053447;28;20205;-70
2021/05/23 03:50:25;;;;;;;1.30;1.13;;;8.90;99.90;;;;;;5053761;28;20310;-69
2021/05/23 03:52:53;;;;;;;2.33;1.00;;;8.80;99.90;;;;;;5053559;28;20197;-70
2021/05/23 03:55:20;;;;;;;0.90;0.80;;;8.70;99.90;;;;;;5053847;28;20224;-70
2021/05/23 03:57:47;;;;;;;1.27;1.17;;;8.70;99.90;;;;;;5053354;28;20201;-70
2021/05/23 04:00:16;;;;;;;3.72;1.10;;;8.70;99.90;;;;;;5053569;28;20225;-70
2021/05/23 04:02:47;;;;;;;1.13;0.88;;;8.70;99.90;;;;;;5053596;28;20566;-69
2021/05/23 04:05:14;;;;;;;2.40;1.00;;;8.60;99.90;;;;;;5053737;28;20208;-70
2021/05/23 04:07:41;;;;;;;1.63;1.02;;;8.60;99.90;;;;;;5053648;28;20758;-69
2021/05/23 04:10:09;;;;;;;1.00;0.80;;;8.60;99.90;;;;;;5053127;28;20720;-69
2021/05/23 04:12:39;;;;;;;1.00;0.90;;;8.70;99.90;;;;;;5053604;28;20668;-70
2021/05/23 04:15:06;;;;;;;4.22;1.00;;;8.70;99.90;;;;;;5053508;28;20709;-69
2021/05/23 04:17:33;;;;;;;1.27;0.85;;;8.60;99.90;;;;;;5053520;28;20566;-70
2021/05/23 04:20:00;;;;;;;1.77;1.00;;;8.70;99.90;;;;;;5053249;28;20214;-69
2021/05/23 04:22:26;;;;;;;0.82;0.77;;;8.70;99.90;;;;;;5053692;28;20575;-70
2021/05/23 04:24:52;;;;;;;2.50;0.90;;;8.70;99.90;;;;;;5053596;28;20209;-69
2021/05/23 04:27:19;;;;;;;1.88;0.90;;;8.70;99.90;;;;;;5053547;28;20205;-69
2021/05/23 04:29:45;;;;;;;1.33;1.00;;;8.80;99.90;;;;;;5052759;28;20201;-70
2021/05/23 04:32:11;;;;;;;1.23;1.00;;;8.70;99.90;;;;;;5052511;28;20201;-70
2021/05/23 04:34:38;;;;;;;1.00;0.90;;;8.70;99.90;;;;;;5052858;28;20589;-69
2021/05/23 04:37:05;;;;;;;1.25;1.15;;;8.70;99.90;;;;;;5052836;28;20213;-69
2021/05/23 04:39:32;;;;;;;2.95;1.00;;;8.80;99.90;;;;;;5052874;28;20201;-69
2021/05/23 04:41:58;;;;;;;1.23;1.10;;;8.80;99.90;;;;;;5052791;28;20278;-69
2021/05/23 04:44:24;;;;;;;1.10;0.90;;;8.80;99.90;;;;;;5052842;28;20223;-69
2021/05/23 04:46:50;;;;;;;1.20;1.10;;;8.80;99.90;;;;;;5052564;28;20209;-69
2021/05/23 04:49:17;;;;;;;1.40;1.00;;;8.80;99.90;;;;;;5052534;28;20224;-69
2021/05/23 04:51:44;;;;;;;1.30;1.02;;;8.80;99.90;;;;;;5052435;28;20240;-70
2021/05/23 04:54:11;;;;;;;1.23;1.10;;;8.80;99.90;;;;;;5052591;28;20227;-69
2021/05/23 04:56:37;;;;;;;1.05;0.95;;;8.70;99.90;;;;;;5052598;28;20225;-70
2021/05/23 04:59:03;;;;;;;1.95;1.00;;;8.80;99.90;;;;;;5052064;28;20209;-68
2021/05/23 05:01:30;;;;;;;1.90;1.08;;;8.80;99.90;;;;;;5052461;28;20592;-69
2021/05/23 05:03:56;;;;;;;1.50;1.00;;;8.80;99.90;;;;;;5052391;28;20259;-70
2021/05/23 05:06:23;;;;;;;1.05;0.90;;;8.80;99.90;;;;;;5052696;28;20201;-70
2021/05/23 05:08:50;;;;;;;1.50;1.00;;;8.80;99.90;;;;;;5051913;28;20205;-69
2021/05/23 05:11:16;;;;;;;1.48;1.20;;;8.90;99.90;;;;;;5052560;28;20221;-70
2021/05/23 05:13:43;;;;;;;1.60;1.17;;;8.90;99.90;;;;;;5052328;28;20223;-69
2021/05/23 05:16:09;;;;;;;1.08;0.98;;;9.00;99.90;;;;;;5052242;28;20224;-69
2021/05/23 05:18:35;;;;;;;2.25;1.20;;;9.10;99.90;;;;;;5051927;28;20295;-70
2021/05/23 05:21:02;;;;;;;1.00;0.90;;;9.10;99.90;;;;;;5051972;28;20229;-70
2021/05/23 05:23:34;;;;;;;2.25;0.90;;;9.10;99.90;;;;;;5052414;28;20251;-70
2021/05/23 05:26:02;;;;;;;1.40;0.90;;;9.10;99.90;;;;;;5052013;28;20208;-69
2021/05/23 05:28:29;;;;;;;1.02;0.90;;;9.20;99.90;;;;;;5052266;28;20570;-70
2021/05/23 05:30:55;;;;;;;3.25;1.20;;;9.40;99.90;;;;;;5051850;28;20708;-69
2021/05/23 05:33:21;;;;;;;0.95;0.85;;;9.40;99.90;;;;;;5051932;28;20223;-69
2021/05/23 05:35:47;;;;;;;1.50;1.40;;;9.40;99.90;;;;;;5051637;28;20225;-70
2021/05/23 05:38:14;;;;;;;1.42;1.00;;;9.50;99.90;;;;;;5051332;28;20202;-69
2021/05/23 05:40:40;;;;;;;1.20;1.10;;;9.60;99.90;;;;;;5051844;28;20302;-70
2021/05/23 05:43:07;;;;;;;1.20;1.10;;;9.50;99.90;;;;;;5051507;28;20213;-70
2021/05/23 05:45:34;;;;;;;2.00;1.05;;;9.50;99.90;;;;;;5051624;28;20237;-71
2021/05/23 05:48:00;;;;;;;2.42;1.35;;;9.50;99.90;;;;;;5051259;28;20839;-70
2021/05/23 05:50:26;;;;;;;1.40;1.00;;;9.60;99.90;;;;;;5051500;28;20719;-69
2021/05/23 05:52:52;;;;;;;2.70;1.17;;;9.70;99.90;;;;;;5051231;28;20202;-69
2021/05/23 05:55:18;;;;;;;2.55;1.20;;;9.70;99.90;;;;;;5051262;28;20459;-69
2021/05/23 05:57:45;;;;;;;2.15;1.13;;;9.80;99.90;;;;;;5051112;28;20205;-69
2021/05/23 06:00:12;;;;;;;1.58;1.05;;;9.80;99.90;;;;;;5051138;28;20224;-69
2021/05/23 06:02:39;;;;;;;1.20;1.02;;;9.90;99.90;;;;;;5051268;28;20201;-69
2021/05/23 06:05:06;;;;;;;1.20;1.10;;;9.90;99.90;;;;;;5051135;28;20209;-67
2021/05/23 06:07:32;;;;;;;1.80;0.95;;;10.00;99.90;;;;;;5050938;28;20201;-68
2021/05/23 06:09:58;;;;;;;1.58;1.17;;;10.00;99.90;;;;;;5050650;28;20213;-68
2021/05/23 06:12:25;;;;;;;1.70;1.10;;;10.00;99.90;;;;;;5050884;28;20208;-68
2021/05/23 06:14:51;;;;;;;1.20;1.10;;;10.10;99.90;;;;;;5050905;28;20225;-69
2021/05/23 06:17:18;;;;;;;1.00;0.90;;;10.10;99.90;;;;;;5050997;28;20576;-69
2021/05/23 06:20:17;;;;;;;1.20;1.10;;;10.10;99.90;;;;;;5050699;28;20575;-68
2021/05/23 06:22:46;;;;;;;2.50;1.23;;;10.20;99.90;;;;;;5047221;28;20200;-67
2021/05/23 06:25:13;;;;;;;1.40;1.00;;;10.20;99.90;;;;;;5050836;28;20201;-68
2021/05/23 06:27:39;;;;;;;1.10;1.00;;;10.20;99.90;;;;;;5050652;28;20665;-68
2021/05/23 06:30:07;;;;;;;1.63;1.17;;;10.20;99.90;;;;;;5050387;28;20243;-67
2021/05/23 06:32:35;;;;;;;1.17;1.08;;;10.20;99.90;;;;;;5050660;28;20201;-68
2021/05/23 06:35:01;;;;;;;2.33;1.10;;;10.20;99.90;;;;;;5050491;28;20217;-68
2021/05/23 06:37:28;;;;;;;1.52;0.90;;;10.30;99.90;;;;;;5050603;28;20201;-67
2021/05/23 06:39:54;;;;;;;1.52;1.20;;;10.30;99.90;;;;;;5050313;28;20691;-68
2021/05/23 06:42:21;;;;;;;1.20;1.00;;;10.30;99.90;;;;;;5050696;28;20865;-69
2021/05/23 06:44:47;;;;;;;1.10;1.00;;;10.30;99.90;;;;;;5048779;28;20204;-70
2021/05/23 06:47:14;;;;;;;2.17;1.00;;;10.20;99.90;;;;;;5050527;28;20205;-69
2021/05/23 06:49:42;;;;;;;1.23;0.95;;;10.10;99.90;;;;;;5049886;28;20923;-70
2021/05/23 06:52:08;;;;;;;0.90;0.80;;;10.00;99.90;;;;;;5050484;28;20696;-69
2021/05/23 06:54:34;;;;;;;1.10;1.00;;;9.90;99.90;;;;;;5049778;28;20196;-69
2021/05/23 06:57:01;;;;;;;2.33;1.00;;;9.90;99.90;;;;;;5050569;28;20201;-68
2021/05/23 06:59:27;;;;;;;2.58;0.98;;;10.00;99.90;;;;;;5049824;28;20216;-69
2021/05/23 07:01:54;;;;;;;2.10;0.98;;;10.10;99.90;;;;;;5050448;28;20221;-70
2021/05/23 07:04:20;;;;;;;1.40;1.10;;;10.20;99.90;;;;;;5050251;28;20208;-68
2021/05/23 07:06:47;;;;;;;1.42;1.08;;;10.20;99.90;;;;;;5050264;28;20288;-68
2021/05/23 07:09:13;;;;;;;3.15;1.30;;;10.20;99.90;;;;;;5049838;28;20227;-69
2021/05/23 07:11:40;;;;;;;1.67;1.10;;;10.20;99.90;;;;;;5050128;28;20232;-69
2021/05/23 07:14:06;;;;;;;1.80;1.40;;;10.30;99.90;;;;;;5050343;28;20228;-69
2021/05/23 07:16:32;;;;;;;1.58;1.00;;;10.30;99.90;;;;;;5049871;28;20233;-69
2021/05/23 07:18:59;;;;;;;1.15;0.98;;;10.40;99.90;;;;;;5050014;28;20201;-70
2021/05/23 07:21:25;;;;;;;1.50;1.00;;;10.50;99.90;;;;;;5058730;28;20226;-69
2021/05/23 07:23:52;;;;;;;1.50;1.02;;;10.70;99.90;;;;;;5070099;28;20200;-69
2021/05/23 07:26:19;;;;;;;1.95;1.27;;;10.90;99.90;;;;;;5070238;28;20317;-69
2021/05/23 07:28:45;;;;;;;3.22;1.20;;;11.10;99.90;;;;;;5068189;28;20216;-69
2021/05/23 07:31:12;;;;;;;1.00;0.90;;;11.30;99.90;;;;;;5069645;28;20319;-69
2021/05/23 07:33:39;;;;;;;1.20;1.00;;;11.30;99.90;;;;;;5069921;28;20243;-70
2021/05/23 07:36:07;;;;;;;2.33;1.20;;;11.30;99.90;;;;;;5051034;28;20312;-70
2021/05/23 07:38:34;;;;;;;1.10;1.00;;;11.20;99.90;;;;;;5049470;28;20212;-71
2021/05/23 07:41:01;;;;;;;1.00;0.85;;;11.10;99.90;;;;;;5049646;28;20221;-70
2021/05/23 07:43:28;;;;;;;2.42;1.27;;;11.00;99.90;;;;;;5049805;28;20267;-70
2021/05/23 07:45:54;;;;;;;2.03;0.93;;;10.80;99.90;;;;;;5049560;28;20370;-70
2021/05/23 07:48:20;;;;;;;1.42;0.88;;;10.60;99.90;;;;;;5049071;28;20258;-69
2021/05/23 07:50:47;;;;;;;1.10;1.00;;;10.30;99.90;;;;;;5048726;28;20217;-69
2021/05/23 07:53:14;;;;;;;1.80;1.00;;;10.20;99.90;;;;;;5049208;28;20255;-70
2021/05/23 07:55:40;;;;;;;2.15;1.00;;;10.20;99.90;;;;;;5049707;28;20217;-70
2021/05/23 07:58:07;;;;;;;1.30;1.15;;;10.10;99.90;;;;;;5049739;28;20295;-70
2021/05/23 08:00:34;;;;;;;1.30;1.00;;;10.10;99.90;;;;;;5049164;28;20263;-70
2021/05/23 08:03:00;;;;;;;3.47;2.08;;;10.20;99.90;;;;;;5049666;28;20208;-70
2021/05/23 08:05:27;;;;;;;2.65;1.10;;;10.20;99.90;;;;;;5049277;28;20209;-69
2021/05/23 08:07:54;;;;;;;5.47;1.60;;;10.20;99.90;;;;;;5051844;28;20595;-70
2021/05/23 08:10:21;;;;;;;1.90;1.10;;;10.10;99.90;;;;;;5052672;28;20229;-68
2021/05/23 08:12:48;;;;;;;1.88;1.10;;;10.20;99.90;;;;;;5052667;28;20204;-69
2021/05/23 08:15:15;;;;;;;1.15;1.00;;;10.30;99.90;;;;;;5052699;28;20237;-70
2021/05/23 08:17:44;;;;;;;1.52;1.00;;;10.50;99.90;;;;;;5052146;28;20205;-70
2021/05/23 08:20:12;;;;;;;1.48;1.05;;;10.80;99.90;;;;;;5052432;28;20572;-69
2021/05/23 08:22:38;;;;;;;2.45;1.08;;;11.00;99.90;;;;;;5052558;28;20205;-70
2021/05/23 08:25:07;;;;;;;1.40;1.20;;;11.30;99.90;;;;;;5052535;28;20208;-71
2021/05/23 08:27:33;;;;;;;1.80;1.27;;;11.50;99.90;;;;;;5052417;28;20711;-69
2021/05/23 08:29:59;;;;;;;2.45;1.20;;;11.70;99.90;;;;;;5051933;28;20217;-70
2021/05/23 08:32:27;;;;;;;1.50;1.13;;;11.90;99.90;;;;;;5052528;28;20258;-70
2021/05/23 08:34:53;;;;;;;3.03;1.20;;;12.00;99.90;;;;;;5052544;28;20209;-68
2021/05/23 08:37:19;;;;;;;2.33;1.00;;;12.10;99.90;;;;;;5052194;28;20237;-71
2021/05/23 08:39:46;;;;;;;3.20;1.45;;;12.10;99.90;;;;;;5051746;28;20608;-71
2021/05/23 08:42:12;;;;;;;1.95;1.35;;;12.20;99.90;;;;;;5052253;28;20680;-70
2021/05/23 08:44:39;;;;;;;3.20;1.45;;;12.20;99.90;;;;;;5052042;28;20251;-70
2021/05/23 08:47:05;;;;;;;4.95;1.35;;;12.20;99.90;;;;;;5052402;28;20569;-70
2021/05/23 08:49:32;;;;;;;1.20;1.00;;;12.20;99.90;;;;;;5051420;28;20205;-70
2021/05/23 08:51:58;;;;;;;1.98;1.00;;;12.40;99.90;;;;;;5052460;28;20228;-70
2021/05/23 08:54:25;;;;;;;1.60;0.90;;;12.50;99.90;;;;;;5052065;28;20773;-70
2021/05/23 08:56:52;;;;;;;1.20;1.00;;;12.80;99.90;;;;;;5051934;28;20295;-70
2021/05/23 08:59:19;;;;;;;3.63;1.20;;;12.80;99.90;;;;;;5051697;28;20656;-69
2021/05/23 09:01:46;;;;;;;2.73;1.33;;;12.90;99.90;;;;;;5051567;28;20900;-70
2021/05/23 09:04:16;;;;;;;1.50;1.30;;;13.00;99.90;;;;;;5052097;28;20520;-70
2021/05/23 09:06:43;;;;;;;2.30;1.40;;;13.10;99.90;;;;;;5051647;28;20467;-70
2021/05/23 09:09:11;;;;;;;1.47;1.10;;;13.10;99.90;;;;;;5051476;28;20459;-70
2021/05/23 09:11:40;;;;;;;4.57;1.43;;;13.00;99.90;;;;;;5051559;28;20479;-70
2021/05/23 09:14:06;;;;;;;1.60;1.30;;;13.00;99.90;;;;;;5051882;28;20463;-69
2021/05/23 09:16:37;;;;;;;1.50;1.07;;;13.00;99.90;;;;;;5051647;28;20494;-70
2021/05/23 09:19:04;;;;;;;2.37;1.70;;;12.90;99.90;;;;;;5051056;28;20951;-70
2021/05/23 09:21:32;;;;;;;3.20;1.40;;;12.90;99.90;;;;;;5051652;28;20975;-70
2021/05/23 09:24:01;;;;;;;2.00;1.20;;;12.80;99.90;;;;;;5051712;28;20459;-69
2021/05/23 09:26:33;;;;;;;1.40;1.10;;;12.60;99.90;;;;;;5051315;28;20462;-70
2021/05/23 09:29:06;;;;;;;1.33;0.90;;;12.50;99.90;;;;;;5051314;28;20467;-69
2021/05/23 09:31:32;;;;;;;1.93;1.03;;;12.50;99.90;;;;;;5051823;28;20494;-69
2021/05/23 09:33:59;;;;;;;2.23;1.20;;;12.50;99.90;;;;;;5051664;28;20466;-70
2021/05/23 09:36:25;;;;;;;1.53;1.27;;;12.50;99.90;;;;;;5051187;28;20487;-70
2021/05/23 09:38:53;;;;;;;1.93;1.10;;;12.30;99.90;;;;;;5051310;28;20829;-70
2021/05/23 09:41:26;;;;;;;1.40;0.87;;;12.10;99.90;;;;;;5051102;28;20493;-70
2021/05/23 09:44:15;;;;;;;0.93;0.80;;;11.80;99.90;;;;;;5051361;28;20823;-69
2021/05/23 09:46:52;;;;;;;1.20;1.00;;;11.60;99.90;;;;;;5051107;28;21014;-69
2021/05/23 09:49:18;;;;;;;1.52;1.00;;;11.50;99.90;;;;;;5050603;28;20207;-69
2021/05/23 09:51:53;;;;;;;1.00;0.80;;;11.70;99.90;;;;;;5050718;28;20278;-70
2021/05/23 09:54:19;;;;;;;2.50;0.90;;;11.90;99.90;;;;;;5051054;28;20879;-69
2021/05/23 09:56:46;;;;;;;1.48;1.15;;;12.20;99.90;;;;;;5050593;28;20487;-69
2021/05/23 09:59:21;;;;;;;1.55;0.90;;;12.40;99.90;;;;;;5050543;28;20202;-69
2021/05/23 10:01:47;;;;;;;4.70;1.13;;;12.80;99.90;;;;;;5050340;28;20220;-69
2021/05/23 10:04:21;;;;;;;2.43;1.10;;;13.10;99.90;;;;;;5050854;28;20554;-70
2021/05/23 10:07:01;;;;;;;7.27;1.57;;;13.50;99.90;;;;;;5050399;28;20470;-69
2021/05/23 10:09:28;;;;;;;1.10;1.00;;;13.70;99.90;;;;;;5050159;28;20470;-70
2021/05/23 10:11:57;;;;;;;1.50;1.10;;;13.90;99.90;;;;;;5050780;28;20549;-70
2021/05/23 10:14:23;;;;;;;3.13;1.47;;;14.10;99.90;;;;;;5050382;28;20982;-69
2021/05/23 10:16:51;;;;;;;1.33;1.00;;;14.30;99.90;;;;;;5050477;28;20517;-69
2021/05/23 10:19:19;;;;;;;1.93;1.10;;;14.50;99.90;;;;;;5050232;28;20874;-70
2021/05/23 10:21:47;;;;;;;1.77;1.20;;;14.80;99.90;;;;;;5050341;28;20487;-70
2021/05/23 10:24:17;;;;;;;1.90;1.10;;;15.10;99.90;;;;;;5049688;28;20475;-70
2021/05/23 10:26:45;;;;;;;1.30;1.07;;;15.30;99.90;;;;;;5049686;28;20463;-70
2021/05/23 10:29:12;;;;;;;1.00;0.90;;;15.60;99.90;;;;;;5049541;28;20542;-68
2021/05/23 10:31:38;;;;;;;1.10;0.87;;;15.80;99.90;;;;;;5049547;28;20487;-69
2021/05/23 10:34:04;;;;;;;1.97;1.00;;;16.00;99.90;;;;;;5050576;28;20559;-70
2021/05/23 10:36:36;;;;;;;2.47;1.10;;;16.30;99.90;;;;;;5050127;28;20483;-69
2021/05/23 10:39:06;;;;;;;1.83;0.90;;;16.40;99.90;;;;;;5050279;28;20554;-70
2021/05/23 10:41:33;;;;;;;2.50;1.20;;;16.50;99.50;;;;;;5050036;28;20486;-70
2021/05/23 10:44:03;;;;;;;1.33;0.90;;;16.20;97.70;;;;;;5050417;28;20463;-69
2021/05/23 10:46:30;;;;;;;1.57;0.90;;;15.90;97.40;;;;;;5050382;28;21026;-69
2021/05/23 10:48:59;;;;;;;2.13;1.00;;;15.70;98.40;;;;;;5050246;28;20466;-70
2021/05/23 10:51:26;;;;;;;2.80;1.00;;;15.60;99.60;;;;;;5050091;28;20510;-69
2021/05/23 10:53:53;;;;;;;1.67;1.10;;;15.40;98.50;;;;;;5050215;28;20535;-70
2021/05/23 10:56:23;;;;;;;1.93;1.10;;;15.20;99.30;;;;;;5050341;28;20487;-69
2021/05/23 10:58:57;;;;;;;1.50;1.40;;;15.10;99.90;;;;;;5049870;28;20523;-69
2021/05/23 11:01:44;;;;;;;1.10;0.90;;;14.90;99.60;;;;;;5049525;28;20518;-69
2021/05/23 11:04:14;;;;;;;2.33;1.30;;;14.70;99.90;;;;;;5050338;28;20459;-69
2021/05/23 11:06:42;;;;;;;2.37;1.00;;;14.40;99.90;;;;;;5050899;28;20977;-70
2021/05/23 11:09:10;;;;;;;1.20;0.90;;;14.20;99.90;;;;;;5050258;28;20459;-70
2021/05/23 11:11:37;;;;;;;1.70;0.80;;;14.30;99.90;;;;;;5050205;28;20844;-69
2021/05/23 11:14:14;;;;;;;1.47;1.27;;;14.60;99.90;;;;;;5051598;28;20466;-68
2021/05/23 11:16:53;;;;;;;1.67;0.93;;;15.20;99.90;;;;;;5070135;28;20497;-67
2021/05/23 11:19:19;;;;;;;2.13;1.00;;;15.90;99.90;;;;;;5070077;28;20454;-68
2021/05/23 11:21:49;;;;;;;1.63;0.80;;;16.30;99.60;;;;;;5070346;28;20492;-68
2021/05/23 11:24:16;;;;;;;1.50;1.00;;;16.70;99.20;;;;;;5070190;28;20961;-69
2021/05/23 11:26:43;;;;;;;5.40;1.00;;;16.90;98.10;;;;;;5070147;28;20592;-69
2021/05/23 11:29:10;;;;;;;1.90;0.93;;;17.10;97.80;;;;;;5069669;28;20455;-68
2021/05/23 11:31:37;;;;;;;3.10;0.90;;;17.30;98.10;;;;;;5069623;28;20494;-68
2021/05/23 11:34:06;;;;;;;1.60;0.93;;;17.50;97.20;;;;;;5068762;28;20442;-68
2021/05/23 11:36:34;;;;;;;2.50;1.23;;;17.60;96.80;;;;;;5069766;28;20487;-68
2021/05/23 11:39:03;;;;;;;1.10;1.00;;;17.80;97.80;;;;;;5069684;28;20462;-69
2021/05/23 11:41:31;;;;;;;0.90;0.70;;;17.90;96.90;;;;;;5071700;28;20478;-68
2021/05/23 11:43:57;;;;;;;1.10;0.80;;;18.10;95.00;;;;;;5073743;28;20841;-69
2021/05/23 11:46:25;;;;;;;1.90;0.90;;;18.00;94.20;;;;;;5073500;28;20489;-68
2021/05/23 11:48:52;;;;;;;2.13;1.00;;;18.00;93.90;;;;;;5073207;28;20515;-67
2021/05/23 11:51:24;;;;;;;2.43;1.00;;;17.90;94.40;;;;;;5073220;28;20485;-68
2021/05/23 11:53:52;;;;;;;3.00;1.00;;;17.90;94.40;;;;;;5073178;28;20470;-68
2021/05/23 11:56:20;;;;;;;2.13;1.13;;;17.80;95.90;;;;;;5073344;28;20486;-68
2021/05/23 11:58:48;;;;;;;2.00;1.07;;;17.90;94.90;;;;;;5048247;28;20478;-67
2021/05/23 12:01:17;;;;;;;1.20;0.90;;;17.90;94.10;;;;;;5051677;28;20479;-68
2021/05/23 12:03:54;;;;;;;1.40;1.10;;;18.00;94.20;;;;;;5051968;28;20478;-69
2021/05/23 12:06:22;;;;;;;2.30;1.03;;;18.20;97.50;;;;;;5051817;28;21086;-68
2021/05/23 12:08:48;;;;;;;1.20;1.00;;;18.20;92.90;;;;;;5051604;28;20455;-68
2021/05/23 12:11:15;;;;;;;2.03;1.00;;;18.00;93.30;;;;;;5051633;28;20471;-69
2021/05/23 12:13:43;;;;;;;1.47;0.80;;;17.90;92.60;;;;;;5051779;28;20567;-69
2021/05/23 12:16:12;;;;;;;1.60;1.10;;;17.40;94.40;;;;;;5051598;28;20599;-69
2021/05/23 12:18:41;;;;;;;2.33;1.27;;;17.20;94.30;;;;;;5051239;28;20455;-69
2021/05/23 12:21:10;;;;;;;1.20;0.93;;;17.00;94.80;;;;;;5048630;28;20475;-69
2021/05/23 12:23:37;;;;;;;1.73;0.97;;;17.00;94.60;;;;;;5051877;28;20464;-69
2021/05/23 12:26:09;;;;;;;2.90;1.10;;;17.20;94.80;;;;;;5051409;28;20459;-68
2021/05/23 12:28:45;;;;;;;1.30;0.93;;;17.30;93.10;;;;;;5051492;28;20455;-69
2021/05/23 12:31:13;;;;;;;3.13;1.00;;;17.40;93.80;;;;;;5048925;28;20853;-69
2021/05/23 12:33:40;;;;;;;2.07;1.33;;;17.40;92.90;;;;;;5051544;28;20471;-69
2021/05/23 12:36:10;;;;;;;1.43;1.00;;;17.20;93.50;;;;;;5048461;28;20486;-69
2021/05/23 12:38:38;;;;;;;1.23;1.00;;;16.90;92.90;;;;;;5051412;28;20491;-69
2021/05/23 12:41:06;;;;;;;1.40;0.70;;;16.50;93.10;;;;;;5051296;28;21305;-69
2021/05/23 12:43:34;;;;;;;2.80;1.00;;;16.00;92.10;;;;;;5051628;28;20455;-69
2021/05/23 12:46:03;;;;;;;1.50;1.00;;;15.70;93.90;;;;;;5051462;28;20514;-68
2021/05/23 12:48:34;;;;;;;1.03;0.93;;;15.60;94.70;;;;;;5048574;28;20829;-69
2021/05/23 12:51:02;;;;;;;0.90;0.70;;;15.60;93.80;;;;;;5050619;28;20479;-68
2021/05/23 12:53:30;;;;;;;2.10;1.23;;;15.40;94.40;;;;;;5050144;28;20470;-69